sensor_id;sensor_type;location;lat;lon;timestamp;pressure;altitude;pressure_sealevel;temperature;humidity
63916;BME280;50094;51.356;-0.196;2023-01-27T00:01:25;102269.56;;;24.94;24.64
63916;BME280;50094;51.356;-0.196;2023-01-27T00:03:52;102272.10;;;25.16;24.60
63916;BME280;50094;51.356;-0.196;2023-01-27T00:06:19;102273.87;;;25.36;24.63
63916;BME280;50094;51.356;-0.196;2023-01-27T00:08:46;102272.44;;;25.09;24.64
63916;BME280;50094;51.356;-0.196;2023-01-27T00:11:13;102269.43;;;25.11;24.67
63916;BME280;50094;51.356;-0.196;2023-01-27T00:13:40;102273.54;;;25.06;24.69
63916;BME280;50094;51.356;-0.196;2023-01-27T00:16:07;102277.08;;;25.05;24.66
63916;BME280;50094;51.356;-0.196;2023-01-27T00:18:35;102271.47;;;25.00;24.65
63916;BME280;50094;51.356;-0.196;2023-01-27T00:21:03;102266.22;;;24.79;24.68
63916;BME280;50094;51.356;-0.196;2023-01-27T00:23:31;102258.30;;;25.01;24.66
63916;BME280;50094;51.356;-0.196;2023-01-27T00:25:57;102257.87;;;25.27;24.68
63916;BME280;50094;51.356;-0.196;2023-01-27T00:28:26;102254.57;;;24.96;24.70
63916;BME280;50094;51.356;-0.196;2023-01-27T00:30:53;102254.06;;;25.23;24.67
63916;BME280;50094;51.356;-0.196;2023-01-27T00:33:20;102254.48;;;24.97;24.66
63916;BME280;50094;51.356;-0.196;2023-01-27T00:35:47;102250.19;;;24.98;24.66
63916;BME280;50094;51.356;-0.196;2023-01-27T00:38:14;102243.59;;;24.96;24.68
63916;BME280;50094;51.356;-0.196;2023-01-27T00:40:41;102243.82;;;25.26;24.67
63916;BME280;50094;51.356;-0.196;2023-01-27T00:43:09;102243.21;;;25.00;24.70
63916;BME280;50094;51.356;-0.196;2023-01-27T00:45:36;102238.26;;;25.04;24.68
63916;BME280;50094;51.356;-0.196;2023-01-27T00:48:03;102233.42;;;24.80;24.69
63916;BME280;50094;51.356;-0.196;2023-01-27T00:50:30;102233.28;;;24.96;24.68
63916;BME280;50094;51.356;-0.196;2023-01-27T00:52:57;102235.90;;;24.70;24.65
63916;BME280;50094;51.356;-0.196;2023-01-27T00:55:24;102234.14;;;24.89;24.65
63916;BME280;50094;51.356;-0.196;2023-01-27T00:57:51;102228.70;;;25.12;24.64
63916;BME280;50094;51.356;-0.196;2023-01-27T01:00:19;102229.06;;;25.15;24.63
63916;BME280;50094;51.356;-0.196;2023-01-27T01:02:46;102231.91;;;25.16;24.57
63916;BME280;50094;51.356;-0.196;2023-01-27T01:05:13;102230.70;;;25.05;24.53
63916;BME280;50094;51.356;-0.196;2023-01-27T01:07:41;102227.16;;;24.78;24.54
63916;BME280;50094;51.356;-0.196;2023-01-27T01:10:10;102221.27;;;24.76;24.49
63916;BME280;50094;51.356;-0.196;2023-01-27T01:12:37;102217.29;;;24.77;24.49
63916;BME280;50094;51.356;-0.196;2023-01-27T01:15:05;102223.19;;;24.73;24.48
63916;BME280;50094;51.356;-0.196;2023-01-27T01:17:32;102220.63;;;24.98;24.42
63916;BME280;50094;51.356;-0.196;2023-01-27T01:19:59;102227.73;;;24.64;24.35
63916;BME280;50094;51.356;-0.196;2023-01-27T01:22:26;102216.50;;;24.62;24.32
63916;BME280;50094;51.356;-0.196;2023-01-27T01:24:53;102213.49;;;24.64;24.32
63916;BME280;50094;51.356;-0.196;2023-01-27T01:27:21;102211.12;;;24.80;24.27
63916;BME280;50094;51.356;-0.196;2023-01-27T01:29:48;102211.41;;;24.82;24.27
63916;BME280;50094;51.356;-0.196;2023-01-27T01:32:14;102208.60;;;24.80;24.26
63916;BME280;50094;51.356;-0.196;2023-01-27T01:34:42;102208.27;;;24.59;24.23
63916;BME280;50094;51.356;-0.196;2023-01-27T01:37:09;102210.19;;;24.84;24.30
63916;BME280;50094;51.356;-0.196;2023-01-27T01:39:37;102209.21;;;24.81;24.31
63916;BME280;50094;51.356;-0.196;2023-01-27T01:42:04;102206.25;;;24.62;24.32
63916;BME280;50094;51.356;-0.196;2023-01-27T01:44:31;102202.76;;;24.83;24.30
63916;BME280;50094;51.356;-0.196;2023-01-27T01:46:58;102202.11;;;24.79;24.26
63916;BME280;50094;51.356;-0.196;2023-01-27T01:49:28;102201.20;;;24.47;24.23
63916;BME280;50094;51.356;-0.196;2023-01-27T01:51:58;102200.19;;;24.72;24.23
63916;BME280;50094;51.356;-0.196;2023-01-27T01:54:30;102197.73;;;24.70;24.29
63916;BME280;50094;51.356;-0.196;2023-01-27T01:57:02;102201.84;;;24.72;24.32
63916;BME280;50094;51.356;-0.196;2023-01-27T01:59:33;102196.46;;;24.75;24.32
63916;BME280;50094;51.356;-0.196;2023-01-27T02:02:04;102197.63;;;24.76;24.30
63916;BME280;50094;51.356;-0.196;2023-01-27T02:04:35;102196.52;;;24.77;24.30
63916;BME280;50094;51.356;-0.196;2023-01-27T02:07:06;102191.97;;;24.81;24.31
63916;BME280;50094;51.356;-0.196;2023-01-27T02:09:36;102186.79;;;24.30;24.34
63916;BME280;50094;51.356;-0.196;2023-01-27T02:12:05;102189.85;;;24.83;24.36
63916;BME280;50094;51.356;-0.196;2023-01-27T02:14:33;102192.52;;;24.47;24.30
63916;BME280;50094;51.356;-0.196;2023-01-27T02:17:01;102191.15;;;24.56;24.32
63916;BME280;50094;51.356;-0.196;2023-01-27T02:19:37;102192.79;;;24.55;24.33
63916;BME280;50094;51.356;-0.196;2023-01-27T02:22:10;102191.06;;;24.82;24.36
63916;BME280;50094;51.356;-0.196;2023-01-27T02:24:45;102193.54;;;24.83;24.38
63916;BME280;50094;51.356;-0.196;2023-01-27T02:27:13;102185.89;;;24.83;24.34
63916;BME280;50094;51.356;-0.196;2023-01-27T02:29:41;102185.28;;;24.57;24.32
63916;BME280;50094;51.356;-0.196;2023-01-27T02:32:21;102184.99;;;24.56;24.35
63916;BME280;50094;51.356;-0.196;2023-01-27T02:34:48;102189.21;;;24.81;24.37
63916;BME280;50094;51.356;-0.196;2023-01-27T02:37:15;102182.09;;;24.77;24.35
63916;BME280;50094;51.356;-0.196;2023-01-27T02:39:44;102184.15;;;24.51;24.33
63916;BME280;50094;51.356;-0.196;2023-01-27T02:42:14;102180.21;;;24.52;24.34
63916;BME280;50094;51.356;-0.196;2023-01-27T02:44:42;102178.57;;;24.60;24.27
63916;BME280;50094;51.356;-0.196;2023-01-27T02:47:09;102177.54;;;24.53;24.29
63916;BME280;50094;51.356;-0.196;2023-01-27T02:49:37;102177.92;;;24.30;24.28
63916;BME280;50094;51.356;-0.196;2023-01-27T02:52:04;102183.21;;;24.52;24.27
63916;BME280;50094;51.356;-0.196;2023-01-27T02:54:31;102184.79;;;24.73;24.24
63916;BME280;50094;51.356;-0.196;2023-01-27T02:56:58;102185.79;;;24.41;24.19
63916;BME280;50094;51.356;-0.196;2023-01-27T02:59:26;102177.59;;;24.69;24.21
63916;BME280;50094;51.356;-0.196;2023-01-27T03:01:54;102180.29;;;24.71;24.19
63916;BME280;50094;51.356;-0.196;2023-01-27T03:04:20;102183.72;;;24.63;24.16
63916;BME280;50094;51.356;-0.196;2023-01-27T03:06:47;102185.06;;;24.39;24.15
63916;BME280;50094;51.356;-0.196;2023-01-27T03:09:14;102178.85;;;24.68;24.19
63916;BME280;50094;51.356;-0.196;2023-01-27T03:11:41;102186.16;;;24.41;24.16
63916;BME280;50094;51.356;-0.196;2023-01-27T03:14:08;102184.82;;;24.62;24.13
63916;BME280;50094;51.356;-0.196;2023-01-27T03:16:36;102186.03;;;24.63;24.08
63916;BME280;50094;51.356;-0.196;2023-01-27T03:19:03;102196.60;;;24.60;24.10
63916;BME280;50094;51.356;-0.196;2023-01-27T03:21:30;102194.44;;;24.59;24.08
63916;BME280;50094;51.356;-0.196;2023-01-27T03:23:57;102198.21;;;24.56;24.10
63916;BME280;50094;51.356;-0.196;2023-01-27T03:26:24;102192.97;;;24.53;24.11
63916;BME280;50094;51.356;-0.196;2023-01-27T03:28:51;102191.53;;;24.58;24.11
63916;BME280;50094;51.356;-0.196;2023-01-27T03:31:18;102194.92;;;24.64;24.06
63916;BME280;50094;51.356;-0.196;2023-01-27T03:33:45;102197.35;;;24.60;24.05
63916;BME280;50094;51.356;-0.196;2023-01-27T03:36:12;102188.13;;;24.53;24.02
63916;BME280;50094;51.356;-0.196;2023-01-27T03:38:40;102186.78;;;24.55;24.06
63916;BME280;50094;51.356;-0.196;2023-01-27T03:41:07;102182.38;;;24.28;24.04
63916;BME280;50094;51.356;-0.196;2023-01-27T03:43:34;102182.62;;;24.50;24.01
63916;BME280;50094;51.356;-0.196;2023-01-27T03:46:01;102187.73;;;24.52;24.05
63916;BME280;50094;51.356;-0.196;2023-01-27T03:48:28;102180.54;;;24.48;24.01
63916;BME280;50094;51.356;-0.196;2023-01-27T03:50:56;102182.38;;;24.53;24.01
63916;BME280;50094;51.356;-0.196;2023-01-27T03:53:24;102176.76;;;24.52;24.04
63916;BME280;50094;51.356;-0.196;2023-01-27T03:55:51;102179.82;;;24.50;24.00
63916;BME280;50094;51.356;-0.196;2023-01-27T03:58:22;102177.03;;;24.48;23.97
63916;BME280;50094;51.356;-0.196;2023-01-27T04:00:51;102171.08;;;24.41;23.95
63916;BME280;50094;51.356;-0.196;2023-01-27T04:03:20;102169.96;;;24.46;23.96
63916;BME280;50094;51.356;-0.196;2023-01-27T04:05:47;102171.52;;;24.91;23.95
63916;BME280;50094;51.356;-0.196;2023-01-27T04:08:14;102168.49;;;24.42;23.97
63916;BME280;50094;51.356;-0.196;2023-01-27T04:10:41;102167.24;;;24.40;23.97
63916;BME280;50094;51.356;-0.196;2023-01-27T04:13:08;102169.21;;;24.11;23.98
63916;BME280;50094;51.356;-0.196;2023-01-27T04:15:35;102164.82;;;24.42;23.98
63916;BME280;50094;51.356;-0.196;2023-01-27T04:18:03;102160.35;;;24.39;23.99
63916;BME280;50094;51.356;-0.196;2023-01-27T04:20:30;102162.41;;;24.44;24.01
63916;BME280;50094;51.356;-0.196;2023-01-27T04:22:57;102164.06;;;24.40;24.01
63916;BME280;50094;51.356;-0.196;2023-01-27T04:25:24;102168.50;;;24.44;23.99
63916;BME280;50094;51.356;-0.196;2023-01-27T04:27:51;102166.20;;;24.35;23.99
63916;BME280;50094;51.356;-0.196;2023-01-27T04:30:18;102160.78;;;24.35;23.99
63916;BME280;50094;51.356;-0.196;2023-01-27T04:32:44;102160.02;;;24.38;24.02
63916;BME280;50094;51.356;-0.196;2023-01-27T04:35:11;102160.77;;;24.37;24.04
63916;BME280;50094;51.356;-0.196;2023-01-27T04:37:38;102163.22;;;24.36;24.02
63916;BME280;50094;51.356;-0.196;2023-01-27T04:40:06;102164.03;;;24.10;24.04
63916;BME280;50094;51.356;-0.196;2023-01-27T04:42:34;102163.02;;;24.34;24.02
63916;BME280;50094;51.356;-0.196;2023-01-27T04:45:01;102161.92;;;24.42;24.03
63916;BME280;50094;51.356;-0.196;2023-01-27T04:47:28;102162.95;;;24.17;24.02
63916;BME280;50094;51.356;-0.196;2023-01-27T04:49:55;102162.13;;;24.40;23.97
63916;BME280;50094;51.356;-0.196;2023-01-27T04:52:22;102160.00;;;24.35;23.96
63916;BME280;50094;51.356;-0.196;2023-01-27T04:54:49;102159.98;;;24.31;23.95
63916;BME280;50094;51.356;-0.196;2023-01-27T04:57:16;102164.99;;;24.32;23.96
63916;BME280;50094;51.356;-0.196;2023-01-27T04:59:43;102169.60;;;24.54;23.94
63916;BME280;50094;51.356;-0.196;2023-01-27T05:02:09;102168.17;;;24.32;23.92
63916;BME280;50094;51.356;-0.196;2023-01-27T05:04:36;102166.87;;;24.06;23.91
63916;BME280;50094;51.356;-0.196;2023-01-27T05:07:03;102172.94;;;24.26;23.88
63916;BME280;50094;51.356;-0.196;2023-01-27T05:09:30;102167.48;;;24.17;23.88
63916;BME280;50094;51.356;-0.196;2023-01-27T05:11:58;102170.49;;;24.21;23.89
63916;BME280;50094;51.356;-0.196;2023-01-27T05:14:25;102169.54;;;24.39;23.92
63916;BME280;50094;51.356;-0.196;2023-01-27T05:16:52;102175.09;;;24.16;23.92
63916;BME280;50094;51.356;-0.196;2023-01-27T05:19:19;102181.40;;;24.11;23.91
63916;BME280;50094;51.356;-0.196;2023-01-27T05:21:46;102178.03;;;24.10;23.89
63916;BME280;50094;51.356;-0.196;2023-01-27T05:24:13;102176.10;;;24.03;23.90
63916;BME280;50094;51.356;-0.196;2023-01-27T05:26:41;102172.03;;;24.04;23.90
63916;BME280;50094;51.356;-0.196;2023-01-27T05:29:08;102171.90;;;24.06;23.93
63916;BME280;50094;51.356;-0.196;2023-01-27T05:31:36;102170.34;;;24.10;23.93
63916;BME280;50094;51.356;-0.196;2023-01-27T05:34:03;102173.27;;;24.07;23.92
63916;BME280;50094;51.356;-0.196;2023-01-27T05:36:30;102174.41;;;24.06;23.98
63916;BME280;50094;51.356;-0.196;2023-01-27T05:38:58;102173.45;;;24.05;24.08
63916;BME280;50094;51.356;-0.196;2023-01-27T05:41:28;102176.04;;;24.19;24.12
63916;BME280;50094;51.356;-0.196;2023-01-27T05:43:56;102169.45;;;24.25;24.19
63916;BME280;50094;51.356;-0.196;2023-01-27T05:46:25;102169.20;;;24.31;24.25
63916;BME280;50094;51.356;-0.196;2023-01-27T05:48:54;102169.61;;;24.37;24.29
63916;BME280;50094;51.356;-0.196;2023-01-27T05:51:23;102168.14;;;24.48;24.29
63916;BME280;50094;51.356;-0.196;2023-01-27T05:53:52;102163.25;;;24.52;24.32
63916;BME280;50094;51.356;-0.196;2023-01-27T05:56:20;102166.93;;;24.63;24.32
63916;BME280;50094;51.356;-0.196;2023-01-27T05:58:48;102171.34;;;24.69;24.32
63916;BME280;50094;51.356;-0.196;2023-01-27T06:01:17;102170.09;;;24.47;24.31
63916;BME280;50094;51.356;-0.196;2023-01-27T06:03:45;102170.48;;;24.54;24.30
63916;BME280;50094;51.356;-0.196;2023-01-27T06:06:15;102167.61;;;24.84;24.30
63916;BME280;50094;51.356;-0.196;2023-01-27T06:08:43;102167.26;;;24.62;24.31
63916;BME280;50094;51.356;-0.196;2023-01-27T06:11:10;102169.50;;;24.72;24.29
63916;BME280;50094;51.356;-0.196;2023-01-27T06:13:38;102168.02;;;24.76;24.26
63916;BME280;50094;51.356;-0.196;2023-01-27T06:16:08;102172.31;;;25.12;24.23
63916;BME280;50094;51.356;-0.196;2023-01-27T06:18:36;102167.71;;;24.83;24.24
63916;BME280;50094;51.356;-0.196;2023-01-27T06:21:05;102165.09;;;24.62;24.27
63916;BME280;50094;51.356;-0.196;2023-01-27T06:23:33;102168.66;;;24.93;24.25
63916;BME280;50094;51.356;-0.196;2023-01-27T06:26:03;102162.67;;;24.92;24.17
63916;BME280;50094;51.356;-0.196;2023-01-27T06:28:30;102154.14;;;25.11;24.23
63916;BME280;50094;51.356;-0.196;2023-01-27T06:31:04;102155.43;;;25.14;24.26
63916;BME280;50094;51.356;-0.196;2023-01-27T06:33:32;102158.13;;;24.83;24.20
63916;BME280;50094;51.356;-0.196;2023-01-27T06:36:00;102163.77;;;24.84;24.18
63916;BME280;50094;51.356;-0.196;2023-01-27T06:38:28;102159.69;;;24.78;24.19
63916;BME280;50094;51.356;-0.196;2023-01-27T06:40:55;102160.99;;;24.79;24.19
63916;BME280;50094;51.356;-0.196;2023-01-27T06:43:22;102156.37;;;24.58;24.19
63916;BME280;50094;51.356;-0.196;2023-01-27T06:45:49;102155.11;;;24.79;24.13
63916;BME280;50094;51.356;-0.196;2023-01-27T06:48:17;102162.13;;;24.58;24.10
63916;BME280;50094;51.356;-0.196;2023-01-27T06:50:45;102158.77;;;25.01;24.11
63916;BME280;50094;51.356;-0.196;2023-01-27T06:53:12;102161.72;;;24.76;24.12
63916;BME280;50094;51.356;-0.196;2023-01-27T06:55:39;102160.16;;;25.01;24.09
63916;BME280;50094;51.356;-0.196;2023-01-27T06:58:07;102165.63;;;24.74;24.08
63916;BME280;50094;51.356;-0.196;2023-01-27T07:00:35;102165.78;;;24.71;24.06
63916;BME280;50094;51.356;-0.196;2023-01-27T07:03:03;102169.75;;;24.67;24.02
63916;BME280;50094;51.356;-0.196;2023-01-27T07:05:30;102171.69;;;24.93;24.01
63916;BME280;50094;51.356;-0.196;2023-01-27T07:07:58;102175.10;;;24.65;24.00
63916;BME280;50094;51.356;-0.196;2023-01-27T07:10:25;102171.43;;;24.62;23.93
63916;BME280;50094;51.356;-0.196;2023-01-27T07:13:03;102171.43;;;24.88;23.87
63916;BME280;50094;51.356;-0.196;2023-01-27T07:15:30;102174.29;;;24.59;23.87
63916;BME280;50094;51.356;-0.196;2023-01-27T07:17:57;102175.38;;;24.79;23.91
63916;BME280;50094;51.356;-0.196;2023-01-27T07:20:25;102170.79;;;24.78;23.94
63916;BME280;50094;51.356;-0.196;2023-01-27T07:22:52;102168.61;;;24.54;23.90
63916;BME280;50094;51.356;-0.196;2023-01-27T07:25:20;102169.68;;;24.74;23.92
63916;BME280;50094;51.356;-0.196;2023-01-27T07:27:47;102173.94;;;24.71;23.89
63916;BME280;50094;51.356;-0.196;2023-01-27T07:30:14;102175.75;;;24.69;23.87
63916;BME280;50094;51.356;-0.196;2023-01-27T07:32:42;102179.76;;;24.42;23.87
63916;BME280;50094;51.356;-0.196;2023-01-27T07:35:09;102179.40;;;24.38;23.81
63916;BME280;50094;51.356;-0.196;2023-01-27T07:37:36;102183.87;;;24.57;23.77
63916;BME280;50094;51.356;-0.196;2023-01-27T07:40:04;102189.91;;;24.31;23.71
63916;BME280;50094;51.356;-0.196;2023-01-27T07:42:31;102193.48;;;24.32;23.66
63916;BME280;50094;51.356;-0.196;2023-01-27T07:44:57;102189.91;;;24.27;23.66
63916;BME280;50094;51.356;-0.196;2023-01-27T07:47:24;102187.79;;;24.25;23.63
63916;BME280;50094;51.356;-0.196;2023-01-27T07:49:51;102191.18;;;24.49;23.60
63916;BME280;50094;51.356;-0.196;2023-01-27T07:52:18;102191.75;;;24.47;23.61
63916;BME280;50094;51.356;-0.196;2023-01-27T07:54:45;102194.75;;;24.44;23.66
63916;BME280;50094;51.356;-0.196;2023-01-27T07:57:12;102196.08;;;24.44;23.66
63916;BME280;50094;51.356;-0.196;2023-01-27T07:59:39;102200.56;;;24.47;23.65
63916;BME280;50094;51.356;-0.196;2023-01-27T08:02:05;102203.56;;;24.51;23.67
63916;BME280;50094;51.356;-0.196;2023-01-27T08:04:32;102202.27;;;24.47;23.68
63916;BME280;50094;51.356;-0.196;2023-01-27T08:06:59;102204.29;;;24.49;23.68
63916;BME280;50094;51.356;-0.196;2023-01-27T08:09:26;102203.70;;;24.46;23.66
63916;BME280;50094;51.356;-0.196;2023-01-27T08:11:53;102208.98;;;24.45;23.67
63916;BME280;50094;51.356;-0.196;2023-01-27T08:14:20;102210.60;;;24.42;23.67
63916;BME280;50094;51.356;-0.196;2023-01-27T08:16:47;102211.00;;;24.17;23.66
63916;BME280;50094;51.356;-0.196;2023-01-27T08:19:14;102210.75;;;24.41;23.69
63916;BME280;50094;51.356;-0.196;2023-01-27T08:21:42;102212.50;;;24.16;23.67
63916;BME280;50094;51.356;-0.196;2023-01-27T08:24:10;102215.95;;;24.43;23.63
63916;BME280;50094;51.356;-0.196;2023-01-27T08:26:37;102219.81;;;24.17;23.61
63916;BME280;50094;51.356;-0.196;2023-01-27T08:29:04;102219.52;;;24.38;23.61
63916;BME280;50094;51.356;-0.196;2023-01-27T08:31:32;102216.72;;;24.40;23.59
63916;BME280;50094;51.356;-0.196;2023-01-27T08:33:59;102222.00;;;24.60;23.59
63916;BME280;50094;51.356;-0.196;2023-01-27T08:36:27;102223.27;;;24.11;23.60
63916;BME280;50094;51.356;-0.196;2023-01-27T08:38:54;102229.49;;;24.40;23.63
63916;BME280;50094;51.356;-0.196;2023-01-27T08:41:24;102228.53;;;24.39;23.61
63916;BME280;50094;51.356;-0.196;2023-01-27T08:43:53;102232.48;;;24.42;23.59
63916;BME280;50094;51.356;-0.196;2023-01-27T08:46:20;102231.30;;;24.39;23.56
63916;BME280;50094;51.356;-0.196;2023-01-27T08:48:47;102226.75;;;24.39;23.60
63916;BME280;50094;51.356;-0.196;2023-01-27T08:51:14;102227.23;;;24.37;23.60
63916;BME280;50094;51.356;-0.196;2023-01-27T08:53:41;102227.82;;;24.33;23.61
63916;BME280;50094;51.356;-0.196;2023-01-27T08:56:11;102231.81;;;24.34;23.58
63916;BME280;50094;51.356;-0.196;2023-01-27T08:58:39;102232.21;;;24.33;23.58
63916;BME280;50094;51.356;-0.196;2023-01-27T09:01:07;102225.62;;;24.32;23.61
63916;BME280;50094;51.356;-0.196;2023-01-27T09:03:35;102223.34;;;24.34;23.65
63916;BME280;50094;51.356;-0.196;2023-01-27T09:06:03;102227.02;;;23.85;23.68
63916;BME280;50094;51.356;-0.196;2023-01-27T09:08:30;102227.92;;;24.42;23.70
63916;BME280;50094;51.356;-0.196;2023-01-27T09:10:58;102232.76;;;24.34;23.70
63916;BME280;50094;51.356;-0.196;2023-01-27T09:13:25;102243.68;;;24.36;23.73
63916;BME280;50094;51.356;-0.196;2023-01-27T09:15:52;102244.78;;;24.40;23.74
63916;BME280;50094;51.356;-0.196;2023-01-27T09:18:20;102240.50;;;24.37;23.75
63916;BME280;50094;51.356;-0.196;2023-01-27T09:20:47;102245.13;;;24.38;23.78
63916;BME280;50094;51.356;-0.196;2023-01-27T09:23:14;102248.50;;;24.41;23.82
63916;BME280;50094;51.356;-0.196;2023-01-27T09:25:41;102246.20;;;24.16;23.83
63916;BME280;50094;51.356;-0.196;2023-01-27T09:28:08;102246.69;;;24.46;23.85
63916;BME280;50094;51.356;-0.196;2023-01-27T09:30:35;102251.60;;;24.44;23.87
63916;BME280;50094;51.356;-0.196;2023-01-27T09:33:01;102253.36;;;24.44;23.87
63916;BME280;50094;51.356;-0.196;2023-01-27T09:35:34;102258.84;;;24.47;23.86
63916;BME280;50094;51.356;-0.196;2023-01-27T09:38:03;102255.11;;;24.41;23.83
63916;BME280;50094;51.356;-0.196;2023-01-27T09:40:37;102255.94;;;24.46;23.84
63916;BME280;50094;51.356;-0.196;2023-01-27T09:43:23;102249.54;;;24.47;23.87
63916;BME280;50094;51.356;-0.196;2023-01-27T09:46:09;102249.06;;;24.47;23.85
63916;BME280;50094;51.356;-0.196;2023-01-27T09:48:55;102252.15;;;24.46;23.87
63916;BME280;50094;51.356;-0.196;2023-01-27T09:51:36;102248.35;;;24.50;23.87
63916;BME280;50094;51.356;-0.196;2023-01-27T09:54:26;102246.49;;;24.23;23.82
63916;BME280;50094;51.356;-0.196;2023-01-27T09:57:05;102244.22;;;24.48;23.84
63916;BME280;50094;51.356;-0.196;2023-01-27T09:59:51;102239.00;;;24.50;23.85
63916;BME280;50094;51.356;-0.196;2023-01-27T10:02:39;102241.28;;;24.24;23.85
63916;BME280;50094;51.356;-0.196;2023-01-27T10:05:25;102242.18;;;24.53;23.79
63916;BME280;50094;51.356;-0.196;2023-01-27T10:08:06;102238.87;;;24.25;23.77
63916;BME280;50094;51.356;-0.196;2023-01-27T10:10:48;102236.03;;;24.76;23.77
63916;BME280;50094;51.356;-0.196;2023-01-27T10:13:30;102244.89;;;24.28;23.78
63916;BME280;50094;51.356;-0.196;2023-01-27T10:16:14;102246.19;;;24.50;23.75
63916;BME280;50094;51.356;-0.196;2023-01-27T10:19:00;102252.43;;;24.52;23.69
63916;BME280;50094;51.356;-0.196;2023-01-27T10:21:41;102252.54;;;24.51;23.68
63916;BME280;50094;51.356;-0.196;2023-01-27T10:24:21;102245.84;;;24.52;23.65
63916;BME280;50094;51.356;-0.196;2023-01-27T10:26:55;102247.29;;;24.48;23.62
63916;BME280;50094;51.356;-0.196;2023-01-27T10:29:27;102246.36;;;24.48;23.65
63916;BME280;50094;51.356;-0.196;2023-01-27T10:31:59;102254.10;;;24.56;23.62
63916;BME280;50094;51.356;-0.196;2023-01-27T10:34:34;102253.66;;;24.50;23.58
63916;BME280;50094;51.356;-0.196;2023-01-27T10:37:11;102247.14;;;24.46;23.54
63916;BME280;50094;51.356;-0.196;2023-01-27T10:39:49;102253.41;;;24.47;23.58
63916;BME280;50094;51.356;-0.196;2023-01-27T10:42:30;102249.58;;;24.43;23.54
63916;BME280;50094;51.356;-0.196;2023-01-27T10:45:11;102252.23;;;24.43;23.51
63916;BME280;50094;51.356;-0.196;2023-01-27T10:47:53;102246.86;;;24.42;23.53
63916;BME280;50094;51.356;-0.196;2023-01-27T10:50:27;102243.98;;;24.44;23.44
63916;BME280;50094;51.356;-0.196;2023-01-27T10:53:00;102248.65;;;24.43;23.44
63916;BME280;50094;51.356;-0.196;2023-01-27T10:55:37;102237.98;;;24.06;23.38
63916;BME280;50094;51.356;-0.196;2023-01-27T10:58:10;102238.30;;;24.36;23.36
63916;BME280;50094;51.356;-0.196;2023-01-27T11:00:44;102237.17;;;24.37;23.33
63916;BME280;50094;51.356;-0.196;2023-01-27T11:03:16;102239.35;;;24.37;23.33
63916;BME280;50094;51.356;-0.196;2023-01-27T11:05:50;102232.72;;;24.37;23.33
63916;BME280;50094;51.356;-0.196;2023-01-27T11:08:19;102234.30;;;24.38;23.30
63916;BME280;50094;51.356;-0.196;2023-01-27T11:10:58;102235.70;;;24.14;23.34
63916;BME280;50094;51.356;-0.196;2023-01-27T11:13:26;102228.97;;;24.41;23.30
63916;BME280;50094;51.356;-0.196;2023-01-27T11:15:55;102225.49;;;24.43;23.34
63916;BME280;50094;51.356;-0.196;2023-01-27T11:18:25;102225.05;;;24.40;23.35
63916;BME280;50094;51.356;-0.196;2023-01-27T11:20:56;102228.78;;;24.39;23.31
63916;BME280;50094;51.356;-0.196;2023-01-27T11:23:28;102230.45;;;24.40;23.27
63916;BME280;50094;51.356;-0.196;2023-01-27T11:26:00;102225.43;;;24.43;23.24
63916;BME280;50094;51.356;-0.196;2023-01-27T11:28:35;102225.35;;;24.45;23.27
63916;BME280;50094;51.356;-0.196;2023-01-27T11:31:12;102224.75;;;24.44;23.30
63916;BME280;50094;51.356;-0.196;2023-01-27T11:33:51;102223.63;;;24.42;23.30
63916;BME280;50094;51.356;-0.196;2023-01-27T11:36:20;102215.39;;;24.42;23.23
63916;BME280;50094;51.356;-0.196;2023-01-27T11:38:47;102215.07;;;23.96;23.25
63916;BME280;50094;51.356;-0.196;2023-01-27T11:41:14;102215.86;;;24.49;23.25
63916;BME280;50094;51.356;-0.196;2023-01-27T11:43:41;102205.88;;;24.46;23.23
63916;BME280;50094;51.356;-0.196;2023-01-27T11:46:12;102198.55;;;24.43;23.18
63916;BME280;50094;51.356;-0.196;2023-01-27T11:48:42;102196.41;;;24.39;23.17
63916;BME280;50094;51.356;-0.196;2023-01-27T11:51:16;102192.55;;;24.40;23.18
63916;BME280;50094;51.356;-0.196;2023-01-27T11:53:44;102189.59;;;24.39;23.15
63916;BME280;50094;51.356;-0.196;2023-01-27T11:56:17;102193.80;;;24.45;23.17
63916;BME280;50094;51.356;-0.196;2023-01-27T11:58:50;102196.06;;;24.21;23.19
63916;BME280;50094;51.356;-0.196;2023-01-27T12:01:23;102199.32;;;24.46;23.21
63916;BME280;50094;51.356;-0.196;2023-01-27T12:03:57;102197.74;;;24.44;23.17
63916;BME280;50094;51.356;-0.196;2023-01-27T12:06:33;102196.46;;;24.44;23.17
63916;BME280;50094;51.356;-0.196;2023-01-27T12:09:01;102198.73;;;24.16;23.17
63916;BME280;50094;51.356;-0.196;2023-01-27T12:11:30;102201.94;;;24.39;23.13
63916;BME280;50094;51.356;-0.196;2023-01-27T12:13:59;102201.91;;;24.39;23.11
63916;BME280;50094;51.356;-0.196;2023-01-27T12:16:39;102194.20;;;24.35;23.08
63916;BME280;50094;51.356;-0.196;2023-01-27T12:19:20;102198.47;;;24.36;23.09
63916;BME280;50094;51.356;-0.196;2023-01-27T12:21:53;102194.21;;;24.35;23.03
63916;BME280;50094;51.356;-0.196;2023-01-27T12:24:26;102198.16;;;24.33;22.98
63916;BME280;50094;51.356;-0.196;2023-01-27T12:26:55;102196.67;;;24.32;22.92
63916;BME280;50094;51.356;-0.196;2023-01-27T12:29:26;102200.40;;;24.47;22.87
63916;BME280;50094;51.356;-0.196;2023-01-27T12:31:56;102190.70;;;24.20;22.80
63916;BME280;50094;51.356;-0.196;2023-01-27T12:34:28;102191.53;;;24.63;22.84
63916;BME280;50094;51.356;-0.196;2023-01-27T12:36:57;102191.32;;;24.18;22.84
63916;BME280;50094;51.356;-0.196;2023-01-27T12:39:31;102191.34;;;24.14;22.81
63916;BME280;50094;51.356;-0.196;2023-01-27T12:41:59;102184.33;;;24.39;22.79
63916;BME280;50094;51.356;-0.196;2023-01-27T12:44:40;102195.17;;;24.43;22.79
63916;BME280;50094;51.356;-0.196;2023-01-27T12:47:20;102185.37;;;24.15;22.74
63916;BME280;50094;51.356;-0.196;2023-01-27T12:49:49;102182.14;;;23.91;22.78
63916;BME280;50094;51.356;-0.196;2023-01-27T12:52:19;102182.67;;;24.24;22.86